Time;durP1;ratioP1;P1;durP2;ratioP2;P2;SDS_P1;SDS_P2;PMS_P1;PMS_P2;Temp;Humidity;BMP_temperature;BMP_pressure;BME280_temperature;BME280_humidity;BME280_pressure;Samples;Min_cycle;Max_cycle;Signal;HPM_P1;HPM_P2
2023/07/21 00:02:07;;;;;;;3.15;1.98;;;;;;;;;;5009932;28;20237;-87
2023/07/21 00:04:35;;;;;;;1.98;1.88;;;;;;;;;;4990900;28;20622;-86
2023/07/21 00:07:04;;;;;;;2.15;2.05;;;;;;;;;;4991640;28;20193;-87
2023/07/21 00:09:31;;;;;;;2.15;1.50;;;;;;;;;;4991783;28;20291;-87
2023/07/21 00:11:57;;;;;;;1.70;1.60;;;;;;;;;;5009970;28;20756;-86
2023/07/21 00:14:26;;;;;;;2.38;1.40;;;;;;;;;;4993361;28;20287;-87
2023/07/21 00:16:53;;;;;;;2.08;1.50;;;;;;;;;;4990876;28;20200;-86
2023/07/21 00:19:20;;;;;;;3.90;1.80;;;;;;;;;;4991332;28;20655;-88
2023/07/21 00:21:47;;;;;;;1.73;1.63;;;;;;;;;;5007490;28;20189;-86
2023/07/21 00:24:18;;;;;;;1.80;1.70;;;;;;;;;;5021807;28;20658;-88
2023/07/21 00:26:46;;;;;;;1.90;1.80;;;;;;;;;;5014417;28;20235;-86
2023/07/21 00:29:13;;;;;;;2.22;2.10;;;;;;;;;;5020929;28;20247;-86
2023/07/21 00:31:42;;;;;;;1.95;1.85;;;;;;;;;;5030041;28;20204;-86
2023/07/21 00:34:10;;;;;;;10.18;2.03;;;;;;;;;;5030727;28;20196;-87
2023/07/21 00:36:36;;;;;;;1.73;1.63;;;;;;;;;;5030792;28;20205;-86
2023/07/21 00:39:04;;;;;;;2.35;1.70;;;;;;;;;;5030644;28;20196;-86
2023/07/21 00:41:33;;;;;;;1.23;1.23;;;;;;;;;;5029997;28;20245;-87
2023/07/21 00:44:01;;;;;;;1.98;1.80;;;;;;;;;;5029509;28;20208;-87
2023/07/21 00:46:28;;;;;;;8.88;1.70;;;;;;;;;;5030162;28;20211;-87
2023/07/21 00:48:55;;;;;;;1.88;1.77;;;;;;;;;;5029084;28;20229;-87
2023/07/21 00:51:22;;;;;;;6.43;1.52;;;;;;;;;;5030074;28;20290;-85
2023/07/21 00:53:54;;;;;;;2.13;1.88;;;;;;;;;;5030121;28;20227;-87
2023/07/21 00:56:21;;;;;;;1.38;1.38;;;;;;;;;;5029770;28;20235;-85
2023/07/21 00:58:49;;;;;;;1.67;1.58;;;;;;;;;;5030632;28;20204;-86
2023/07/21 01:01:16;;;;;;;2.30;1.80;;;;;;;;;;5041955;28;20270;-84
2023/07/21 01:03:45;;;;;;;2.15;1.98;;;;;;;;;;5031948;28;20219;-85
2023/07/21 01:06:13;;;;;;;2.15;2.05;;;;;;;;;;5011668;28;20652;-86
2023/07/21 01:08:40;;;;;;;2.17;2.08;;;;;;;;;;5014568;28;20244;-86
2023/07/21 01:11:10;;;;;;;5.13;2.15;;;;;;;;;;4996718;28;20212;-87
2023/07/21 01:13:39;;;;;;;1.70;1.60;;;;;;;;;;4990395;28;20308;-88
2023/07/21 01:16:08;;;;;;;1.80;1.70;;;;;;;;;;4989654;28;20204;-86
2023/07/21 01:18:35;;;;;;;2.10;2.00;;;;;;;;;;4989706;28;20288;-86
2023/07/21 01:21:03;;;;;;;1.75;1.70;;;;;;;;;;4990162;28;20498;-86
2023/07/21 01:23:35;;;;;;;2.45;2.00;;;;;;;;;;4989693;28;20259;-87
2023/07/21 01:26:04;;;;;;;1.85;1.75;;;;;;;;;;4989400;28;20233;-86
2023/07/21 01:28:32;;;;;;;2.03;1.73;;;;;;;;;;4990031;28;20204;-86
2023/07/21 01:31:00;;;;;;;5.32;1.88;;;;;;;;;;4991506;28;20268;-87
2023/07/21 01:33:27;;;;;;;1.90;1.73;;;;;;;;;;4994249;28;20218;-88
2023/07/21 01:35:55;;;;;;;2.63;1.88;;;;;;;;;;4994200;28;20529;-85
2023/07/21 01:38:23;;;;;;;2.53;1.90;;;;;;;;;;5008903;28;20213;-87
2023/07/21 01:40:53;;;;;;;2.65;2.00;;;;;;;;;;4999684;28;20213;-86
2023/07/21 01:43:23;;;;;;;5.20;1.90;;;;;;;;;;5001932;28;20213;-88
2023/07/21 01:45:50;;;;;;;6.70;1.98;;;;;;;;;;5010685;28;20593;-87
2023/07/21 01:48:20;;;;;;;2.85;2.13;;;;;;;;;;5023840;28;20231;-87
2023/07/21 01:50:49;;;;;;;1.90;1.80;;;;;;;;;;5002797;28;20323;-89
2023/07/21 01:53:20;;;;;;;2.30;2.10;;;;;;;;;;4999355;28;20213;-86
2023/07/21 01:55:52;;;;;;;2.10;2.00;;;;;;;;;;4993361;28;20226;-89
2023/07/21 01:58:19;;;;;;;2.28;2.05;;;;;;;;;;4999854;28;20284;-88
2023/07/21 02:00:48;;;;;;;2.30;2.20;;;;;;;;;;4999621;28;20224;-87
2023/07/21 02:03:17;;;;;;;2.10;1.75;;;;;;;;;;4994737;28;20197;-87
2023/07/21 02:05:44;;;;;;;3.80;2.33;;;;;;;;;;4994010;28;20234;-88
2023/07/21 02:08:12;;;;;;;1.58;1.50;;;;;;;;;;4994043;28;20198;-86
2023/07/21 02:10:40;;;;;;;1.80;1.70;;;;;;;;;;5000579;28;20205;-86
2023/07/21 02:13:09;;;;;;;2.00;1.90;;;;;;;;;;5013011;28;20307;-86
2023/07/21 02:15:37;;;;;;;2.38;2.15;;;;;;;;;;5014688;28;20196;-86
2023/07/21 02:18:05;;;;;;;3.00;2.17;;;;;;;;;;5011460;28;20198;-86
2023/07/21 02:20:35;;;;;;;1.90;1.80;;;;;;;;;;5010524;28;20213;-86
2023/07/21 02:23:02;;;;;;;2.17;2.00;;;;;;;;;;5008319;28;20224;-87
2023/07/21 02:25:30;;;;;;;3.53;2.78;;;;;;;;;;5013123;28;20273;-87
2023/07/21 02:27:58;;;;;;;2.45;2.35;;;;;;;;;;5012167;28;20304;-86
2023/07/21 02:30:27;;;;;;;2.08;1.92;;;;;;;;;;5012856;28;20208;-86
2023/07/21 02:32:55;;;;;;;2.30;2.20;;;;;;;;;;5008724;28;20287;-86
2023/07/21 02:35:24;;;;;;;2.20;2.10;;;;;;;;;;4995320;28;20622;-87
2023/07/21 02:37:51;;;;;;;2.70;2.50;;;;;;;;;;4993209;28;20307;-86
2023/07/21 02:40:18;;;;;;;2.13;2.03;;;;;;;;;;4992950;28;20198;-87
2023/07/21 02:42:45;;;;;;;2.10;2.00;;;;;;;;;;4992863;28;20217;-88
2023/07/21 02:45:12;;;;;;;3.08;1.80;;;;;;;;;;4992952;28;20335;-87
2023/07/21 02:47:39;;;;;;;2.40;2.25;;;;;;;;;;4992919;28;20265;-88
2023/07/21 02:50:11;;;;;;;2.17;2.08;;;;;;;;;;4993358;28;20202;-89
2023/07/21 02:52:42;;;;;;;2.97;1.65;;;;;;;;;;5002656;28;20231;-88
2023/07/21 02:55:09;;;;;;;2.45;2.20;;;;;;;;;;5012897;28;20310;-87
2023/07/21 02:57:36;;;;;;;2.35;1.85;;;;;;;;;;5012687;28;20201;-86
2023/07/21 03:00:04;;;;;;;2.00;1.90;;;;;;;;;;5012905;28;20193;-86
2023/07/21 03:02:33;;;;;;;2.45;2.10;;;;;;;;;;5011322;28;20204;-86
2023/07/21 03:05:05;;;;;;;2.17;1.95;;;;;;;;;;5011881;28;20204;-87
2023/07/21 03:07:35;;;;;;;6.03;2.22;;;;;;;;;;5012482;28;20538;-86
2023/07/21 03:10:11;;;;;;;2.13;2.03;;;;;;;;;;5012853;28;20622;-87
2023/07/21 03:12:38;;;;;;;2.08;1.98;;;;;;;;;;5011863;28;20250;-87
2023/07/21 03:15:06;;;;;;;2.45;2.35;;;;;;;;;;5011455;28;20267;-87
2023/07/21 03:17:33;;;;;;;2.00;1.90;;;;;;;;;;5011744;28;20227;-86
2023/07/21 03:20:11;;;;;;;2.80;2.17;;;;;;;;;;5011886;28;20231;-85
2023/07/21 03:22:38;;;;;;;2.33;2.13;;;;;;;;;;5003894;28;20201;-86
2023/07/21 03:25:08;;;;;;;3.40;2.70;;;;;;;;;;5008967;28;20342;-86
2023/07/21 03:27:43;;;;;;;4.90;2.22;;;;;;;;;;5012326;28;20208;-87
2023/07/21 03:30:11;;;;;;;3.20;2.15;;;;;;;;;;5011001;28;20200;-87
2023/07/21 03:32:38;;;;;;;1.85;1.75;;;;;;;;;;5006919;28;20205;-87
2023/07/21 03:35:05;;;;;;;4.13;2.63;;;;;;;;;;4992752;28;20209;-86
2023/07/21 03:37:35;;;;;;;2.05;1.92;;;;;;;;;;4991849;28;20284;-86
2023/07/21 03:40:06;;;;;;;2.83;2.65;;;;;;;;;;4991192;28;20551;-85
2023/07/21 03:42:35;;;;;;;5.45;2.42;;;;;;;;;;4993145;28;20285;-86
2023/07/21 03:45:04;;;;;;;2.38;2.25;;;;;;;;;;4993923;28;20205;-87
2023/07/21 03:47:31;;;;;;;3.28;2.22;;;;;;;;;;4997966;28;20209;-86
2023/07/21 03:49:58;;;;;;;30.98;15.43;;;;;;;;;;4999600;28;20654;-87
2023/07/21 03:52:26;;;;;;;5.30;2.83;;;;;;;;;;5001995;28;20202;-85
2023/07/21 03:54:53;;;;;;;2.92;2.60;;;;;;;;;;4998396;28;20355;-87
2023/07/21 03:57:22;;;;;;;5.78;2.90;;;;;;;;;;4998387;28;20213;-87
2023/07/21 03:59:58;;;;;;;1.80;1.70;;;;;;;;;;4995188;28;20201;-87
2023/07/21 04:02:27;;;;;;;4.38;2.40;;;;;;;;;;4991583;28;20247;-87
2023/07/21 04:04:54;;;;;;;3.22;3.03;;;;;;;;;;4991252;28;20197;-88
2023/07/21 04:07:22;;;;;;;3.08;2.72;;;;;;;;;;4990908;28;20803;-88
2023/07/21 04:09:50;;;;;;;3.47;2.83;;;;;;;;;;4991173;28;20236;-87
2023/07/21 04:12:17;;;;;;;3.10;2.55;;;;;;;;;;4991102;28;20630;-86
2023/07/21 04:14:44;;;;;;;3.83;2.90;;;;;;;;;;4991174;28;20213;-87
2023/07/21 04:17:12;;;;;;;4.22;3.92;;;;;;;;;;4991019;28;20221;-89
2023/07/21 04:19:39;;;;;;;5.20;3.25;;;;;;;;;;4991236;28;20225;-88
2023/07/21 04:22:05;;;;;;;2.33;2.13;;;;;;;;;;4991470;28;20304;-88
2023/07/21 04:24:34;;;;;;;2.88;2.17;;;;;;;;;;4991279;28;20208;-87
2023/07/21 04:27:01;;;;;;;2.17;1.95;;;;;;;;;;4991449;28;20328;-88
2023/07/21 04:29:28;;;;;;;2.25;2.13;;;;;;;;;;4991761;28;20254;-87
2023/07/21 04:31:55;;;;;;;2.20;2.10;;;;;;;;;;5004041;28;20205;-87
2023/07/21 04:34:24;;;;;;;3.35;2.67;;;;;;;;;;5015605;28;20228;-87
2023/07/21 04:36:51;;;;;;;2.72;2.53;;;;;;;;;;5007195;28;20264;-88
2023/07/21 04:39:19;;;;;;;5.38;2.60;;;;;;;;;;4996685;28;20246;-87
2023/07/21 04:41:47;;;;;;;3.13;2.78;;;;;;;;;;5018491;28;20204;-86
2023/07/21 04:44:13;;;;;;;4.85;3.03;;;;;;;;;;5018408;28;20204;-88
2023/07/21 04:46:41;;;;;;;2.80;2.60;;;;;;;;;;5005386;28;20243;-88
2023/07/21 04:49:09;;;;;;;4.47;2.53;;;;;;;;;;5020774;28;20208;-87
2023/07/21 04:51:38;;;;;;;6.20;2.80;;;;;;;;;;5017532;28;20213;-87
2023/07/21 04:54:05;;;;;;;12.35;9.95;;;;;;;;;;5022767;28;20206;-86
2023/07/21 04:56:32;;;;;;;4.63;3.60;;;;;;;;;;5017927;28;20264;-87
2023/07/21 04:58:59;;;;;;;19.08;13.73;;;;;;;;;;5011120;28;20200;-88
2023/07/21 05:01:26;;;;;;;17.00;10.60;;;;;;;;;;4997116;28;20289;-87
2023/07/21 05:03:54;;;;;;;6.85;4.40;;;;;;;;;;5010265;28;20571;-86
2023/07/21 05:06:23;;;;;;;4.72;3.45;;;;;;;;;;4999939;28;20227;-87
2023/07/21 05:08:57;;;;;;;5.60;3.28;;;;;;;;;;5001795;28;20780;-86
2023/07/21 05:11:24;;;;;;;10.90;6.15;;;;;;;;;;4997365;28;20298;-86
2023/07/21 05:13:52;;;;;;;3.35;2.92;;;;;;;;;;5009969;28;20211;-87
2023/07/21 05:16:19;;;;;;;13.55;10.30;;;;;;;;;;5011871;28;20669;-88
2023/07/21 05:18:46;;;;;;;8.32;3.83;;;;;;;;;;5011297;28;20685;-87
2023/07/21 05:21:17;;;;;;;5.53;3.67;;;;;;;;;;5010230;28;20654;-88
2023/07/21 05:23:44;;;;;;;7.20;3.80;;;;;;;;;;5011313;28;20630;-87
2023/07/21 05:26:12;;;;;;;3.63;3.42;;;;;;;;;;4999656;28;20717;-87
2023/07/21 05:28:39;;;;;;;4.20;3.88;;;;;;;;;;4993751;28;20267;-86
2023/07/21 05:31:07;;;;;;;22.63;11.80;;;;;;;;;;4993220;28;20200;-86
2023/07/21 05:33:35;;;;;;;6.07;5.47;;;;;;;;;;4994141;28;20201;-85
2023/07/21 05:36:08;;;;;;;5.25;3.92;;;;;;;;;;4994058;28;20292;-86
2023/07/21 05:38:35;;;;;;;7.68;4.13;;;;;;;;;;4994326;28;20318;-86
2023/07/21 05:41:02;;;;;;;5.25;3.17;;;;;;;;;;4993638;28;20280;-87
2023/07/21 05:43:31;;;;;;;4.40;3.78;;;;;;;;;;4993378;28;20626;-85
2023/07/21 05:46:13;;;;;;;6.63;5.15;;;;;;;;;;4992737;28;20708;-85
2023/07/21 05:48:39;;;;;;;3.90;3.60;;;;;;;;;;4993609;28;20665;-86
2023/07/21 05:51:13;;;;;;;7.47;3.40;;;;;;;;;;5001992;28;20201;-86
2023/07/21 05:53:40;;;;;;;3.40;3.20;;;;;;;;;;5001339;28;20189;-87
2023/07/21 05:56:08;;;;;;;3.03;2.92;;;;;;;;;;5005846;28;20228;-86
2023/07/21 05:58:46;;;;;;;2.97;2.88;;;;;;;;;;5013608;28;20553;-85
2023/07/21 06:01:13;;;;;;;2.95;2.75;;;;;;;;;;5013721;28;20323;-86
2023/07/21 06:03:40;;;;;;;3.17;2.90;;;;;;;;;;5013352;28;20204;-85
2023/07/21 06:06:09;;;;;;;2.70;2.60;;;;;;;;;;5012352;28;20224;-87
2023/07/21 06:08:35;;;;;;;3.67;3.38;;;;;;;;;;5012098;28;20208;-86
2023/07/21 06:11:05;;;;;;;3.70;3.50;;;;;;;;;;5000398;28;20216;-86
2023/07/21 06:13:33;;;;;;;3.83;3.53;;;;;;;;;;4999781;28;20694;-86
2023/07/21 06:16:02;;;;;;;4.60;3.03;;;;;;;;;;5011439;28;20685;-88
2023/07/21 06:18:29;;;;;;;3.00;2.80;;;;;;;;;;4995157;28;20300;-86
2023/07/21 06:20:56;;;;;;;4.05;3.67;;;;;;;;;;4992916;28;20538;-86
2023/07/21 06:23:24;;;;;;;2.92;2.83;;;;;;;;;;4991568;28;20205;-87
2023/07/21 06:25:51;;;;;;;3.30;2.67;;;;;;;;;;4992245;28;20280;-86
2023/07/21 06:28:21;;;;;;;5.75;2.83;;;;;;;;;;4992228;28;20581;-87
2023/07/21 06:30:49;;;;;;;3.33;3.03;;;;;;;;;;5003346;28;20209;-86
2023/07/21 06:33:17;;;;;;;5.43;3.15;;;;;;;;;;5000497;28;20307;-86
2023/07/21 06:35:46;;;;;;;10.00;3.83;;;;;;;;;;5007352;28;20197;-85
2023/07/21 06:38:14;;;;;;;3.45;3.25;;;;;;;;;;5003557;28;20216;-88
2023/07/21 06:40:43;;;;;;;4.50;3.13;;;;;;;;;;4999091;28;20207;-87
2023/07/21 06:43:09;;;;;;;3.08;2.83;;;;;;;;;;5010813;28;20709;-86
2023/07/21 06:45:39;;;;;;;3.20;3.00;;;;;;;;;;4999820;28;20216;-87
2023/07/21 06:48:07;;;;;;;3.28;3.08;;;;;;;;;;5006917;28;20224;-86
2023/07/21 06:50:38;;;;;;;3.85;3.08;;;;;;;;;;5008257;28;20192;-86
2023/07/21 06:53:06;;;;;;;4.00;3.25;;;;;;;;;;5005293;28;20224;-87
2023/07/21 06:55:33;;;;;;;3.58;3.17;;;;;;;;;;5010330;28;20242;-88
2023/07/21 06:58:03;;;;;;;13.25;3.72;;;;;;;;;;5011083;28;20204;-87
2023/07/21 07:00:31;;;;;;;2.88;2.67;;;;;;;;;;5011291;28;20283;-87
2023/07/21 07:02:59;;;;;;;3.58;2.80;;;;;;;;;;5010941;28;20240;-87
2023/07/21 07:05:30;;;;;;;3.45;3.30;;;;;;;;;;5011263;28;20279;-87
2023/07/21 07:07:59;;;;;;;3.65;3.35;;;;;;;;;;5010654;28;20246;-86
2023/07/21 07:10:29;;;;;;;4.07;3.53;;;;;;;;;;5010673;28;20215;-87
2023/07/21 07:12:56;;;;;;;3.05;2.95;;;;;;;;;;5009539;28;20231;-85
2023/07/21 07:15:23;;;;;;;5.32;3.20;;;;;;;;;;5010214;28;20219;-84
2023/07/21 07:17:50;;;;;;;5.55;3.47;;;;;;;;;;5010613;28;20287;-85
2023/07/21 07:20:17;;;;;;;3.67;3.25;;;;;;;;;;5010399;28;20275;-86
2023/07/21 07:22:44;;;;;;;9.82;2.97;;;;;;;;;;5011617;28;20266;-85
2023/07/21 07:25:14;;;;;;;3.78;3.05;;;;;;;;;;5015999;28;20298;-85
2023/07/21 07:27:43;;;;;;;3.60;3.15;;;;;;;;;;5009914;28;20804;-86
2023/07/21 07:30:16;;;;;;;3.50;3.20;;;;;;;;;;5007817;28;20196;-86
2023/07/21 07:32:48;;;;;;;3.55;3.35;;;;;;;;;;5007795;28;20251;-87
2023/07/21 07:35:16;;;;;;;3.53;3.20;;;;;;;;;;5007683;28;20287;-86
2023/07/21 07:37:43;;;;;;;3.80;3.15;;;;;;;;;;5010504;28;20283;-86
2023/07/21 07:40:19;;;;;;;3.55;3.17;;;;;;;;;;5010498;28;20205;-86
2023/07/21 07:42:46;;;;;;;4.13;3.00;;;;;;;;;;5009703;28;20211;-87
2023/07/21 07:45:15;;;;;;;3.53;3.38;;;;;;;;;;5010940;28;20212;-85
2023/07/21 07:47:50;;;;;;;3.35;2.83;;;;;;;;;;5009790;28;20292;-87
2023/07/21 07:50:17;;;;;;;3.20;3.00;;;;;;;;;;5009678;28;20223;-86
2023/07/21 07:52:44;;;;;;;3.15;2.90;;;;;;;;;;5010055;28;20226;-86
2023/07/21 07:55:11;;;;;;;3.30;3.10;;;;;;;;;;5010087;28;20307;-85
2023/07/21 07:57:40;;;;;;;3.67;2.88;;;;;;;;;;5009111;28;20203;-85
2023/07/21 08:00:08;;;;;;;3.70;2.70;;;;;;;;;;5010518;28;20763;-85
2023/07/21 08:02:34;;;;;;;2.58;2.38;;;;;;;;;;5010708;28;20630;-85
2023/07/21 08:05:02;;;;;;;3.38;3.03;;;;;;;;;;5010130;28;20698;-87
2023/07/21 08:07:29;;;;;;;3.17;2.97;;;;;;;;;;5010841;28;20232;-85
2023/07/21 08:09:56;;;;;;;3.22;2.75;;;;;;;;;;5010739;28;20684;-85
2023/07/21 08:12:24;;;;;;;3.17;2.63;;;;;;;;;;5009252;28;20764;-85
2023/07/21 08:14:54;;;;;;;3.30;3.10;;;;;;;;;;5005087;28;20669;-85
2023/07/21 08:17:21;;;;;;;2.63;2.42;;;;;;;;;;4990449;28;20542;-85
2023/07/21 08:19:49;;;;;;;2.80;2.60;;;;;;;;;;4990613;28;20236;-87
2023/07/21 08:22:17;;;;;;;2.50;2.40;;;;;;;;;;4993856;28;20359;-86
2023/07/21 08:24:43;;;;;;;3.42;3.17;;;;;;;;;;4991801;28;20615;-85
2023/07/21 08:27:10;;;;;;;3.50;3.20;;;;;;;;;;4991242;28;20439;-85
2023/07/21 08:29:37;;;;;;;5.13;2.70;;;;;;;;;;4990792;28;20678;-84
2023/07/21 08:32:07;;;;;;;4.13;2.90;;;;;;;;;;4998298;28;20259;-86
2023/07/21 08:34:34;;;;;;;3.05;2.80;;;;;;;;;;5003307;28;20197;-86
2023/07/21 08:37:01;;;;;;;5.90;2.80;;;;;;;;;;4999714;28;20688;-87
2023/07/21 08:39:30;;;;;;;2.75;2.65;;;;;;;;;;4990703;28;20211;-85
2023/07/21 08:41:57;;;;;;;2.80;2.65;;;;;;;;;;4993796;28;20207;-85
2023/07/21 08:44:24;;;;;;;2.63;2.40;;;;;;;;;;4995814;28;20211;-84
2023/07/21 08:46:51;;;;;;;3.10;2.40;;;;;;;;;;5013492;28;20227;-85
2023/07/21 08:49:19;;;;;;;3.30;2.83;;;;;;;;;;5013804;28;20199;-83
2023/07/21 08:51:47;;;;;;;3.47;2.97;;;;;;;;;;5014092;28;20259;-85
2023/07/21 08:54:14;;;;;;;3.42;2.85;;;;;;;;;;5019877;28;20199;-86
2023/07/21 08:56:41;;;;;;;5.22;3.25;;;;;;;;;;4982263;28;20201;-86
2023/07/21 08:59:09;;;;;;;3.60;3.30;;;;;;;;;;4987726;28;20198;-86
2023/07/21 09:01:36;;;;;;;6.15;2.95;;;;;;;;;;4984750;28;20261;-86
2023/07/21 09:04:03;;;;;;;3.88;3.58;;;;;;;;;;4983912;28;20292;-86
2023/07/21 09:06:35;;;;;;;4.65;3.03;;;;;;;;;;4982934;28;20230;-83
2023/07/21 09:09:02;;;;;;;3.80;3.42;;;;;;;;;;4978693;28;20227;-86
2023/07/21 09:11:35;;;;;;;3.30;3.10;;;;;;;;;;4974214;28;20299;-86
2023/07/21 09:14:02;;;;;;;4.30;2.95;;;;;;;;;;4974526;28;20206;-85
2023/07/21 09:16:34;;;;;;;3.53;3.10;;;;;;;;;;4974335;28;20194;-86
2023/07/21 09:19:01;;;;;;;3.47;3.17;;;;;;;;;;4973904;28;20551;-86
2023/07/21 09:21:28;;;;;;;3.83;3.50;;;;;;;;;;4974285;28;20619;-85
2023/07/21 09:24:03;;;;;;;5.03;3.30;;;;;;;;;;4974246;28;20210;-85
2023/07/21 09:26:30;;;;;;;4.18;3.13;;;;;;;;;;4973782;28;20279;-86
2023/07/21 09:28:58;;;;;;;12.27;3.05;;;;;;;;;;4973780;28;20635;-86
2023/07/21 09:31:28;;;;;;;4.05;3.53;;;;;;;;;;4974076;28;20285;-85
2023/07/21 09:33:56;;;;;;;4.50;3.53;;;;;;;;;;4973638;28;20202;-86
2023/07/21 09:36:26;;;;;;;6.53;2.92;;;;;;;;;;4974379;28;20206;-87
2023/07/21 09:38:52;;;;;;;5.15;3.40;;;;;;;;;;4973744;28;20216;-85
2023/07/21 09:41:24;;;;;;;4.28;3.33;;;;;;;;;;4973252;28;20198;-85
2023/07/21 09:43:52;;;;;;;3.38;3.08;;;;;;;;;;4973758;28;20206;-86
2023/07/21 09:46:19;;;;;;;6.55;3.95;;;;;;;;;;4973798;28;20703;-86
2023/07/21 09:48:47;;;;;;;3.83;3.53;;;;;;;;;;4973481;28;20614;-86
2023/07/21 09:51:14;;;;;;;5.20;3.40;;;;;;;;;;4973552;28;20202;-86
2023/07/21 09:53:48;;;;;;;4.05;2.60;;;;;;;;;;4973222;28;20213;-86
2023/07/21 09:56:16;;;;;;;4.35;3.40;;;;;;;;;;5005119;28;20240;-85
2023/07/21 09:58:47;;;;;;;4.60;3.40;;;;;;;;;;5012112;28;20201;-84
2023/07/21 10:01:14;;;;;;;3.50;3.00;;;;;;;;;;5012283;28;20202;-86
2023/07/21 10:03:42;;;;;;;3.80;2.88;;;;;;;;;;5011615;28;20200;-86
2023/07/21 10:06:09;;;;;;;6.95;3.60;;;;;;;;;;5012745;28;20284;-85
2023/07/21 10:08:39;;;;;;;3.45;3.15;;;;;;;;;;5012128;28;20251;-86
2023/07/21 10:11:07;;;;;;;3.53;3.30;;;;;;;;;;5011918;28;20619;-86
2023/07/21 10:13:40;;;;;;;5.35;4.10;;;;;;;;;;5012175;28;20593;-85
2023/07/21 10:16:09;;;;;;;8.18;3.53;;;;;;;;;;5012130;28;20266;-86
2023/07/21 10:18:37;;;;;;;3.92;3.35;;;;;;;;;;5011512;28;20276;-85
2023/07/21 10:21:05;;;;;;;3.17;2.88;;;;;;;;;;5012090;28;20208;-86
2023/07/21 10:23:34;;;;;;;3.42;3.13;;;;;;;;;;5012426;28;20201;-85
2023/07/21 10:26:06;;;;;;;4.10;3.17;;;;;;;;;;5012488;28;20251;-87
2023/07/21 10:28:42;;;;;;;7.18;2.67;;;;;;;;;;5011929;28;20232;-85
2023/07/21 10:31:36;;;;;;;8.38;4.22;;;;;;;;;;5013239;28;20203;-87
2023/07/21 10:34:08;;;;;;;3.55;3.25;;;;;;;;;;5011787;28;20689;-86
2023/07/21 10:36:46;;;;;;;6.32;3.70;;;;;;;;;;5012599;28;20208;-88
2023/07/21 10:39:21;;;;;;;4.35;3.60;;;;;;;;;;5016396;28;20255;-86
2023/07/21 10:41:52;;;;;;;4.07;3.72;;;;;;;;;;5024526;28;20210;-85
2023/07/21 10:44:19;;;;;;;3.92;3.58;;;;;;;;;;5016518;28;20220;-86
2023/07/21 10:46:51;;;;;;;3.88;3.50;;;;;;;;;;5012728;28;20204;-85
2023/07/21 10:49:28;;;;;;;9.10;3.38;;;;;;;;;;5010745;28;20268;-85
2023/07/21 10:51:56;;;;;;;5.50;3.33;;;;;;;;;;5011336;28;20204;-84
2023/07/21 10:54:25;;;;;;;3.78;3.47;;;;;;;;;;5011545;28;20621;-86
2023/07/21 10:56:55;;;;;;;3.50;3.13;;;;;;;;;;5011070;28;20196;-87
2023/07/21 10:59:24;;;;;;;2.58;2.42;;;;;;;;;;5011372;28;20292;-85
2023/07/21 11:01:55;;;;;;;4.20;3.20;;;;;;;;;;5011291;28;20216;-86
2023/07/21 11:04:23;;;;;;;5.03;3.10;;;;;;;;;;5010333;28;20279;-85
2023/07/21 11:06:52;;;;;;;5.30;2.42;;;;;;;;;;5011006;28;20211;-87
2023/07/21 11:09:21;;;;;;;4.97;2.28;;;;;;;;;;5011005;28;20231;-85
2023/07/21 11:11:48;;;;;;;5.50;2.67;;;;;;;;;;5010516;28;20231;-86
2023/07/21 11:14:15;;;;;;;8.07;2.25;;;;;;;;;;5010685;28;20300;-86
2023/07/21 11:16:43;;;;;;;2.85;2.53;;;;;;;;;;5010902;28;20274;-87
2023/07/21 11:19:16;;;;;;;8.68;2.95;;;;;;;;;;5010474;28;20479;-86
2023/07/21 11:21:42;;;;;;;3.90;2.30;;;;;;;;;;5011332;28;20272;-84
2023/07/21 11:24:10;;;;;;;3.15;2.92;;;;;;;;;;5010826;28;20200;-86
2023/07/21 11:26:38;;;;;;;3.63;2.72;;;;;;;;;;5010630;28;20206;-86
2023/07/21 11:29:07;;;;;;;4.80;2.40;;;;;;;;;;5010349;28;20236;-88
2023/07/21 11:31:35;;;;;;;5.28;2.83;;;;;;;;;;5010419;28;20637;-87
2023/07/21 11:34:04;;;;;;;3.17;2.03;;;;;;;;;;5009903;28;20204;-85
2023/07/21 11:36:37;;;;;;;3.35;2.10;;;;;;;;;;5010221;28;20196;-85
2023/07/21 11:39:07;;;;;;;2.75;2.42;;;;;;;;;;5010633;28;20211;-86
2023/07/21 11:41:37;;;;;;;5.13;2.40;;;;;;;;;;5010021;28;20592;-86
2023/07/21 11:44:09;;;;;;;3.00;2.80;;;;;;;;;;5010558;28;20238;-86
2023/07/21 11:46:38;;;;;;;5.00;2.30;;;;;;;;;;5010662;28;20208;-86
2023/07/21 11:49:10;;;;;;;6.03;2.55;;;;;;;;;;5009863;28;20656;-86
2023/07/21 11:51:45;;;;;;;3.20;2.13;;;;;;;;;;5010178;28;20303;-85
2023/07/21 11:54:22;;;;;;;7.70;2.78;;;;;;;;;;5009381;28;20668;-86
2023/07/21 11:57:02;;;;;;;6.60;2.72;;;;;;;;;;5010023;28;20731;-87
2023/07/21 11:59:29;;;;;;;2.40;2.20;;;;;;;;;;5009920;28;20258;-86
2023/07/21 12:01:59;;;;;;;5.05;2.53;;;;;;;;;;5009159;28;20644;-85
2023/07/21 12:04:27;;;;;;;4.38;2.17;;;;;;;;;;5010068;28;20659;-85
2023/07/21 12:06:55;;;;;;;3.85;3.20;;;;;;;;;;5009866;28;20204;-88
2023/07/21 12:09:23;;;;;;;5.57;2.53;;;;;;;;;;5010830;28;20228;-87
2023/07/21 12:11:53;;;;;;;2.75;2.40;;;;;;;;;;5010157;28;20231;-86
2023/07/21 12:14:21;;;;;;;3.45;2.38;;;;;;;;;;5009773;28;20203;-87
2023/07/21 12:16:48;;;;;;;3.10;2.05;;;;;;;;;;5009334;28;20664;-87
2023/07/21 12:19:15;;;;;;;2.58;2.38;;;;;;;;;;5010000;28;20224;-85
2023/07/21 12:21:43;;;;;;;3.80;2.50;;;;;;;;;;5009855;28;20659;-90
2023/07/21 12:24:13;;;;;;;2.78;2.58;;;;;;;;;;5009156;28;20733;-88
2023/07/21 12:26:41;;;;;;;4.30;2.65;;;;;;;;;;5010015;28;20200;-85
2023/07/21 12:29:09;;;;;;;3.90;2.25;;;;;;;;;;5008668;28;20370;-88
2023/07/21 12:31:38;;;;;;;2.45;2.22;;;;;;;;;;5009800;28;20252;-86
2023/07/21 12:34:07;;;;;;;5.15;2.72;;;;;;;;;;5010171;28;20286;-86
2023/07/21 12:36:34;;;;;;;5.05;2.47;;;;;;;;;;5010488;28;20200;-88
2023/07/21 12:39:09;;;;;;;2.67;2.45;;;;;;;;;;5007276;28;20250;-87
2023/07/21 12:41:38;;;;;;;3.45;2.53;;;;;;;;;;5001264;28;20251;-86
2023/07/21 12:44:09;;;;;;;3.83;2.30;;;;;;;;;;5008491;28;20239;-87
2023/07/21 12:46:36;;;;;;;11.10;3.17;;;;;;;;;;5009204;28;20231;-86
2023/07/21 12:49:05;;;;;;;7.72;2.28;;;;;;;;;;5009617;28;20266;-88
2023/07/21 12:51:32;;;;;;;5.32;2.28;;;;;;;;;;5013242;28;20256;-86
2023/07/21 12:53:59;;;;;;;5.30;2.65;;;;;;;;;;5013149;28;20228;-87
2023/07/21 12:56:27;;;;;;;3.53;2.33;;;;;;;;;;5016338;28;20275;-87
2023/07/21 12:58:59;;;;;;;3.33;2.17;;;;;;;;;;5022617;28;20308;-85
2023/07/21 13:01:25;;;;;;;3.80;2.78;;;;;;;;;;5018926;28;20674;-87
2023/07/21 13:03:54;;;;;;;4.60;2.42;;;;;;;;;;5013511;28;20663;-87
2023/07/21 13:06:21;;;;;;;3.92;2.75;;;;;;;;;;5008555;28;20243;-87
2023/07/21 13:08:48;;;;;;;7.07;2.58;;;;;;;;;;5008343;28;20286;-88
2023/07/21 13:11:18;;;;;;;2.58;2.38;;;;;;;;;;5008393;28;20666;-88
2023/07/21 13:13:48;;;;;;;3.00;2.65;;;;;;;;;;5009190;28;20286;-87
2023/07/21 13:16:17;;;;;;;2.45;2.33;;;;;;;;;;5008271;28;20228;-87
2023/07/21 13:18:45;;;;;;;6.15;2.95;;;;;;;;;;5011469;28;20286;-89
2023/07/21 13:21:12;;;;;;;4.60;2.63;;;;;;;;;;5011382;28;20228;-89
2023/07/21 13:23:41;;;;;;;6.72;2.20;;;;;;;;;;5008278;28;20224;-88
2023/07/21 13:26:08;;;;;;;3.22;2.90;;;;;;;;;;5008868;28;20282;-86
2023/07/21 13:28:39;;;;;;;4.13;2.42;;;;;;;;;;5011877;28;20669;-86
2023/07/21 13:31:06;;;;;;;6.72;2.65;;;;;;;;;;5012078;28;20251;-87
2023/07/21 13:33:34;;;;;;;2.00;1.90;;;;;;;;;;5013021;28;20223;-89
2023/07/21 13:36:01;;;;;;;3.03;2.35;;;;;;;;;;5011342;28;20290;-85
2023/07/21 13:38:30;;;;;;;4.38;2.47;;;;;;;;;;5012782;28;20222;-87
2023/07/21 13:41:09;;;;;;;2.05;1.95;;;;;;;;;;5025581;28;20258;-87
2023/07/21 13:43:41;;;;;;;3.78;2.10;;;;;;;;;;5018291;28;20228;-85
2023/07/21 13:46:09;;;;;;;2.60;2.42;;;;;;;;;;5012731;28;20355;-85
2023/07/21 13:48:39;;;;;;;2.35;2.20;;;;;;;;;;5015800;28;20302;-87
2023/07/21 13:51:06;;;;;;;2.63;2.20;;;;;;;;;;4997120;28;20224;-86
2023/07/21 13:53:35;;;;;;;6.00;2.78;;;;;;;;;;5005969;28;20310;-86
2023/07/21 13:56:02;;;;;;;3.75;2.38;;;;;;;;;;5011328;28;20248;-85
2023/07/21 13:58:30;;;;;;;2.20;1.98;;;;;;;;;;5012352;28;20217;-89
2023/07/21 14:00:58;;;;;;;2.70;2.40;;;;;;;;;;5011310;28;20382;-87
2023/07/21 14:03:26;;;;;;;7.10;2.67;;;;;;;;;;5012558;28;20228;-85
2023/07/21 14:05:55;;;;;;;5.65;2.88;;;;;;;;;;5011576;28;20427;-86
2023/07/21 14:08:23;;;;;;;3.85;2.13;;;;;;;;;;5021908;28;20228;-87
2023/07/21 14:10:51;;;;;;;2.58;2.35;;;;;;;;;;5013172;28;20578;-87
2023/07/21 14:13:21;;;;;;;5.43;2.00;;;;;;;;;;5016896;28;20616;-86
2023/07/21 14:15:49;;;;;;;2.30;2.10;;;;;;;;;;5015759;28;20227;-88
2023/07/21 14:18:22;;;;;;;4.72;1.95;;;;;;;;;;5014926;28;20227;-86
2023/07/21 14:20:49;;;;;;;3.70;2.10;;;;;;;;;;5011501;28;20311;-89
2023/07/21 14:23:19;;;;;;;2.88;2.25;;;;;;;;;;5013891;28;20239;-88
2023/07/21 14:25:46;;;;;;;2.88;2.13;;;;;;;;;;5014905;28;20232;-90
2023/07/21 14:28:13;;;;;;;2.95;2.13;;;;;;;;;;5013333;28;20216;-88
2023/07/21 14:30:40;;;;;;;5.13;2.30;;;;;;;;;;5009505;28;20228;-88
2023/07/21 14:33:08;;;;;;;2.92;2.28;;;;;;;;;;5010218;28;20278;-89
2023/07/21 14:35:36;;;;;;;3.63;2.15;;;;;;;;;;5010518;28;20303;-86
2023/07/21 14:38:05;;;;;;;6.50;1.90;;;;;;;;;;5010446;28;20651;-86
2023/07/21 14:40:35;;;;;;;3.03;2.50;;;;;;;;;;5011243;28;20220;-88
2023/07/21 14:43:05;;;;;;;5.22;3.30;;;;;;;;;;5011177;28;20322;-88
2023/07/21 14:45:34;;;;;;;3.38;2.58;;;;;;;;;;5012927;28;20251;-85
2023/07/21 14:48:02;;;;;;;4.00;3.58;;;;;;;;;;5013057;28;20286;-86
2023/07/21 14:50:32;;;;;;;3.85;1.88;;;;;;;;;;5010087;28;20239;-86
2023/07/21 14:52:59;;;;;;;4.65;2.42;;;;;;;;;;5007878;28;20268;-86